createdAt,value
2019-05-25T00:01:47.434Z,99.90
2019-05-25T00:04:16.043Z,99.90
2019-05-25T00:06:44.675Z,99.90
2019-05-25T00:09:13.285Z,99.90
2019-05-25T00:11:41.779Z,99.90
2019-05-25T00:14:10.312Z,99.90
2019-05-25T00:16:38.868Z,99.90
2019-05-25T00:19:07.408Z,99.90
2019-05-25T00:21:35.970Z,99.90
2019-05-25T00:24:12.330Z,99.90
2019-05-25T00:26:34.805Z,99.90
2019-05-25T00:29:03.351Z,99.90
2019-05-25T00:31:31.929Z,99.90
2019-05-25T00:34:00.472Z,99.90
2019-05-25T00:36:29.002Z,99.90
2019-05-25T00:38:57.490Z,99.90
2019-05-25T00:41:25.958Z,99.90
2019-05-25T00:43:54.532Z,99.90
2019-05-25T00:46:23.120Z,99.90
2019-05-25T00:48:51.613Z,99.90
2019-05-25T00:51:20.148Z,99.90
2019-05-25T00:53:48.706Z,99.90
2019-05-25T00:56:17.181Z,99.90
2019-05-25T00:58:45.813Z,99.90
2019-05-25T01:01:14.380Z,99.90
2019-05-25T01:03:42.920Z,99.90
2019-05-25T01:06:11.463Z,99.90
2019-05-25T01:08:40.036Z,99.90
2019-05-25T01:11:08.637Z,99.90
2019-05-25T01:13:40.305Z,99.90
2019-05-25T01:16:08.810Z,99.90
2019-05-25T01:18:37.381Z,99.90
2019-05-25T01:21:05.982Z,99.90
2019-05-25T01:23:34.554Z,99.90
2019-05-25T01:26:03.095Z,99.90
2019-05-25T01:28:31.746Z,99.90
2019-05-25T01:31:00.296Z,99.90
2019-05-25T01:33:28.886Z,99.90
2019-05-25T01:35:57.418Z,99.90
2019-05-25T01:38:26.122Z,99.90
2019-05-25T01:40:55.361Z,99.90
2019-05-25T01:43:24.155Z,99.90
2019-05-25T01:45:52.686Z,99.90
2019-05-25T01:48:21.533Z,99.90
2019-05-25T01:50:50.072Z,99.90
2019-05-25T01:53:18.654Z,99.90
2019-05-25T01:55:47.114Z,99.90
2019-05-25T01:58:15.625Z,99.90
2019-05-25T02:00:44.168Z,99.90
2019-05-25T02:03:12.732Z,99.90
2019-05-25T02:05:41.283Z,99.90
2019-05-25T02:08:09.859Z,99.90
2019-05-25T02:10:38.409Z,99.90
2019-05-25T02:13:07.043Z,99.90
2019-05-25T02:15:35.582Z,99.90
2019-05-25T02:18:04.255Z,99.90
2019-05-25T02:20:32.794Z,99.90
2019-05-25T02:23:01.402Z,99.90
2019-05-25T02:25:29.988Z,99.90
2019-05-25T02:27:58.552Z,99.90
2019-05-25T02:30:27.492Z,99.90
2019-05-25T02:32:56.012Z,99.90
2019-05-25T02:35:27.190Z,99.90
2019-05-25T02:37:56.901Z,99.90
2019-05-25T02:40:25.694Z,99.90
2019-05-25T02:42:54.378Z,99.90
2019-05-25T02:45:23.085Z,99.90
2019-05-25T02:47:51.694Z,99.90
2019-05-25T02:50:21.063Z,99.90
2019-05-25T02:52:49.674Z,99.90
2019-05-25T02:55:33.158Z,99.90
2019-05-25T02:57:48.986Z,99.90
2019-05-25T03:00:20.630Z,99.90
2019-05-25T03:02:49.498Z,99.90
2019-05-25T03:05:18.252Z,99.90
2019-05-25T03:07:46.782Z,99.90
2019-05-25T03:10:15.901Z,99.90
2019-05-25T03:12:44.891Z,99.90
2019-05-25T03:15:14.251Z,99.90
2019-05-25T03:17:42.870Z,99.90
2019-05-25T03:20:11.674Z,99.90
2019-05-25T03:22:40.211Z,99.90
2019-05-25T03:25:08.776Z,99.90
2019-05-25T03:27:37.337Z,99.90
2019-05-25T03:30:07.357Z,99.90
2019-05-25T03:32:36.067Z,99.90
2019-05-25T03:35:06.832Z,99.90
2019-05-25T03:37:36.295Z,99.90
2019-05-25T03:40:09.573Z,99.90
2019-05-25T03:42:38.116Z,99.90
2019-05-25T03:45:10.003Z,99.90
2019-05-25T03:47:38.544Z,99.90
2019-05-25T03:50:07.195Z,99.90
2019-05-25T03:52:35.735Z,99.90
2019-05-25T03:55:06.815Z,99.90
2019-05-25T03:57:35.434Z,99.90
2019-05-25T04:00:06.646Z,99.90
2019-05-25T04:02:35.188Z,99.90
2019-05-25T04:05:04.997Z,99.90
2019-05-25T04:07:33.539Z,99.90
2019-05-25T04:10:02.457Z,99.90
2019-05-25T04:12:31.018Z,99.90
2019-05-25T04:14:59.511Z,99.90
2019-05-25T04:17:28.049Z,99.90
2019-05-25T04:19:56.553Z,99.90
2019-05-25T04:22:25.091Z,99.90
2019-05-25T04:24:53.628Z,99.90
2019-05-25T04:27:22.208Z,99.90
2019-05-25T04:29:51.041Z,99.90
2019-05-25T04:32:19.604Z,99.90
2019-05-25T04:34:48.157Z,99.90
2019-05-25T04:37:16.735Z,99.90
2019-05-25T04:39:45.281Z,99.90
2019-05-25T04:42:14.265Z,99.90
2019-05-25T04:44:42.802Z,99.90
2019-05-25T04:47:26.190Z,99.90
2019-05-25T04:49:41.564Z,99.90
2019-05-25T04:52:10.137Z,99.90
2019-05-25T04:54:38.762Z,99.90
2019-05-25T04:57:07.499Z,99.90
2019-05-25T04:59:36.077Z,99.90
2019-05-25T05:02:04.778Z,99.90
2019-05-25T05:04:33.341Z,99.90
2019-05-25T05:07:01.934Z,99.90
2019-05-25T05:09:30.470Z,99.90
2019-05-25T05:11:59.045Z,99.90
2019-05-25T05:14:27.691Z,99.90
2019-05-25T05:16:56.252Z,99.90
2019-05-25T05:19:24.812Z,99.90
2019-05-25T05:21:53.374Z,99.90
2019-05-25T05:24:21.910Z,99.90
2019-05-25T05:26:55.925Z,99.90
2019-05-25T05:29:20.767Z,99.90
2019-05-25T05:31:49.411Z,99.90
2019-05-25T05:34:18.039Z,99.90
2019-05-25T05:36:48.203Z,99.90
2019-05-25T05:39:17.015Z,99.90
2019-05-25T05:41:48.289Z,99.90
2019-05-25T05:44:19.238Z,99.90
2019-05-25T05:46:49.854Z,99.90
2019-05-25T05:49:18.862Z,99.90
2019-05-25T05:51:50.255Z,99.90
2019-05-25T05:54:21.028Z,99.90
2019-05-25T05:56:49.856Z,99.90
2019-05-25T05:59:18.525Z,99.90
2019-05-25T06:01:47.038Z,99.90
2019-05-25T06:04:15.577Z,99.90
2019-05-25T06:06:44.154Z,99.90
2019-05-25T06:09:13.046Z,99.90
2019-05-25T06:11:41.700Z,99.90
2019-05-25T06:14:10.234Z,99.90
2019-05-25T06:16:38.774Z,99.90
2019-05-25T06:19:07.569Z,99.90
2019-05-25T06:21:36.066Z,99.90
2019-05-25T06:24:05.465Z,99.90
2019-05-25T06:26:33.934Z,99.90
2019-05-25T06:29:02.503Z,99.90
2019-05-25T06:31:31.050Z,99.90
2019-05-25T06:33:59.614Z,99.90
2019-05-25T06:36:28.154Z,99.90
2019-05-25T06:38:56.792Z,99.90
2019-05-25T06:41:25.395Z,99.90
2019-05-25T06:43:54.279Z,99.90
2019-05-25T06:46:23.175Z,99.90
2019-05-25T06:48:51.848Z,99.90
2019-05-25T06:51:20.451Z,99.90
2019-05-25T06:53:49.015Z,99.90
2019-05-25T06:56:17.560Z,99.90
2019-05-25T06:58:46.122Z,99.90
2019-05-25T07:01:14.588Z,99.90
2019-05-25T07:03:43.164Z,99.90
2019-05-25T07:06:11.713Z,99.90
2019-05-25T07:08:40.602Z,99.90
2019-05-25T07:11:09.143Z,99.90
2019-05-25T07:13:37.782Z,99.90
2019-05-25T07:16:06.754Z,99.90
2019-05-25T07:18:35.786Z,99.90
2019-05-25T07:21:05.102Z,99.90
2019-05-25T07:23:33.669Z,99.90
2019-05-25T07:26:02.130Z,99.90
2019-05-25T07:28:30.762Z,99.90
2019-05-25T07:30:59.374Z,99.90
2019-05-25T07:33:27.934Z,99.90
2019-05-25T07:35:56.627Z,99.90
2019-05-25T07:38:25.127Z,99.90
2019-05-25T07:40:53.659Z,99.90
2019-05-25T07:43:22.226Z,99.90
2019-05-25T07:45:50.777Z,99.90
2019-05-25T07:48:19.737Z,99.90
2019-05-25T07:50:48.207Z,99.90
2019-05-25T07:53:16.784Z,99.90
2019-05-25T07:55:45.323Z,99.90
2019-05-25T07:58:17.879Z,99.90
2019-05-25T08:00:44.082Z,99.90
2019-05-25T08:03:12.620Z,99.90
2019-05-25T08:05:41.258Z,99.90
2019-05-25T08:08:09.795Z,99.90
2019-05-25T08:10:38.288Z,99.90
2019-05-25T08:13:06.894Z,99.90
2019-05-25T08:15:38.747Z,99.90
2019-05-25T08:18:07.434Z,99.90
2019-05-25T08:20:36.315Z,99.90
2019-05-25T08:23:04.922Z,99.90
2019-05-25T08:25:33.560Z,99.90
2019-05-25T08:28:02.103Z,99.90
2019-05-25T08:30:30.738Z,99.90
2019-05-25T08:32:59.279Z,99.90
2019-05-25T08:35:27.914Z,99.90
2019-05-25T08:37:56.450Z,99.90
2019-05-25T08:40:24.944Z,99.90
2019-05-25T08:42:53.750Z,99.90
2019-05-25T08:45:25.787Z,99.90
2019-05-25T08:47:52.569Z,99.90
2019-05-25T08:50:35.390Z,99.40
2019-05-25T08:52:51.764Z,97.00
2019-05-25T08:55:20.335Z,97.40
2019-05-25T08:57:49.021Z,97.30
2019-05-25T09:00:17.776Z,96.80
2019-05-25T09:02:46.289Z,96.50
2019-05-25T09:05:15.190Z,95.50
2019-05-25T09:07:43.729Z,95.30
2019-05-25T09:10:12.527Z,95.00
2019-05-25T09:12:41.061Z,95.10
2019-05-25T09:15:09.696Z,95.80
2019-05-25T09:17:38.291Z,93.70
2019-05-25T09:20:10.423Z,92.30
2019-05-25T09:22:39.034Z,91.50
2019-05-25T09:25:08.742Z,91.20
2019-05-25T09:27:37.282Z,91.20
2019-05-25T09:30:09.517Z,91.40
2019-05-25T09:32:38.059Z,90.10
2019-05-25T09:35:08.666Z,91.40
2019-05-25T09:37:37.278Z,89.70
2019-05-25T09:40:07.519Z,84.70
2019-05-25T09:42:36.057Z,87.00
2019-05-25T09:45:07.213Z,88.10
2019-05-25T09:47:35.708Z,84.50
2019-05-25T09:50:06.085Z,83.90
2019-05-25T09:52:34.658Z,79.00
2019-05-25T09:55:05.242Z,82.10
2019-05-25T09:57:34.432Z,80.60
2019-05-25T10:00:04.941Z,80.10
2019-05-25T10:02:33.513Z,84.40
2019-05-25T10:05:02.423Z,79.80
2019-05-25T10:07:31.147Z,83.50
2019-05-25T10:09:59.694Z,80.10
2019-05-25T10:12:28.259Z,80.60
2019-05-25T10:14:56.800Z,77.90
2019-05-25T10:17:25.373Z,77.30
2019-05-25T10:19:53.905Z,80.70
2019-05-25T10:22:23.139Z,77.80
2019-05-25T10:24:51.655Z,77.20
2019-05-25T10:27:20.288Z,77.80
2019-05-25T10:29:49.154Z,78.00
2019-05-25T10:32:17.651Z,76.00
2019-05-25T10:34:46.192Z,74.60
2019-05-25T10:37:14.830Z,73.30
2019-05-25T10:39:43.370Z,76.90
2019-05-25T10:42:11.947Z,79.50
2019-05-25T10:44:40.554Z,75.70
2019-05-25T10:47:09.366Z,76.60
2019-05-25T10:49:37.932Z,77.60
2019-05-25T10:52:06.598Z,77.00
2019-05-25T10:54:35.099Z,75.10
2019-05-25T10:57:03.738Z,73.10
2019-05-25T10:59:32.274Z,73.40
2019-05-25T11:02:00.842Z,73.70
2019-05-25T11:04:29.378Z,73.80
2019-05-25T11:06:58.022Z,74.60
2019-05-25T11:09:26.566Z,75.30
2019-05-25T11:11:55.129Z,75.70
2019-05-25T11:14:23.686Z,75.50
2019-05-25T11:16:52.259Z,73.80
2019-05-25T11:19:24.029Z,70.90
2019-05-25T11:21:51.014Z,72.20
2019-05-25T11:24:19.554Z,71.70
2019-05-25T11:26:48.134Z,72.40
2019-05-25T11:29:16.679Z,74.10
2019-05-25T11:31:54.573Z,73.40
2019-05-25T11:34:15.458Z,70.10
2019-05-25T11:36:43.985Z,72.80
2019-05-25T11:39:12.557Z,72.40
2019-05-25T11:41:41.164Z,74.00
2019-05-25T11:44:09.748Z,74.00
2019-05-25T11:46:39.058Z,74.30
2019-05-25T11:49:21.671Z,73.70
2019-05-25T11:51:37.810Z,71.70
2019-05-25T11:54:06.390Z,71.20
2019-05-25T11:56:34.934Z,70.70
2019-05-25T11:59:03.569Z,73.20
2019-05-25T12:01:32.114Z,71.70
2019-05-25T12:04:00.681Z,73.50
2019-05-25T12:06:29.223Z,70.30
2019-05-25T12:08:57.822Z,70.00
2019-05-25T12:11:26.369Z,71.70
2019-05-25T12:13:54.871Z,69.50
2019-05-25T12:16:23.434Z,73.70
2019-05-25T12:18:52.092Z,72.10
2019-05-25T12:21:20.633Z,70.00
2019-05-25T12:23:49.276Z,70.70
2019-05-25T12:26:17.837Z,70.90
2019-05-25T12:28:46.408Z,72.90
2019-05-25T12:31:15.093Z,74.00
2019-05-25T12:33:43.666Z,71.20
2019-05-25T12:36:12.208Z,70.60
2019-05-25T12:38:40.851Z,68.90
2019-05-25T12:41:09.387Z,69.70
2019-05-25T12:43:37.954Z,70.50
2019-05-25T12:46:06.519Z,72.20
2019-05-25T12:48:35.081Z,71.00
2019-05-25T12:51:03.546Z,70.40
2019-05-25T12:53:32.046Z,68.60
2019-05-25T12:56:00.876Z,68.40
2019-05-25T12:58:32.893Z,67.30
2019-05-25T13:01:01.447Z,68.60
2019-05-25T13:03:30.003Z,66.40
2019-05-25T13:05:58.466Z,67.50
2019-05-25T13:08:27.030Z,64.20
2019-05-25T13:10:55.569Z,65.50
2019-05-25T13:13:24.135Z,67.20
2019-05-25T13:15:52.670Z,66.60
2019-05-25T13:18:21.142Z,60.80
2019-05-25T13:20:49.707Z,60.00
2019-05-25T13:23:18.186Z,59.70
2019-05-25T13:25:47.123Z,58.00
2019-05-25T13:28:15.671Z,55.50
2019-05-25T13:30:44.245Z,53.60
2019-05-25T13:33:12.782Z,51.90
2019-05-25T13:35:41.347Z,54.50
2019-05-25T13:38:09.898Z,54.00
2019-05-25T13:40:38.471Z,52.90
2019-05-25T13:43:07.016Z,53.80
2019-05-25T13:45:35.582Z,54.30
2019-05-25T13:48:04.451Z,52.70
2019-05-25T13:50:32.950Z,56.20
2019-05-25T13:53:01.490Z,54.50
2019-05-25T13:55:30.067Z,55.10
2019-05-25T13:57:58.900Z,54.00
2019-05-25T14:00:27.475Z,57.90
2019-05-25T14:02:56.021Z,56.10
2019-05-25T14:05:24.592Z,56.80
2019-05-25T14:07:53.140Z,55.40
2019-05-25T14:10:21.727Z,53.20
2019-05-25T14:12:50.270Z,54.60
2019-05-25T14:15:19.002Z,54.20
2019-05-25T14:17:47.542Z,54.10
2019-05-25T14:20:16.449Z,52.20
2019-05-25T14:22:44.985Z,51.00
2019-05-25T14:25:13.627Z,52.10
2019-05-25T14:27:42.194Z,53.20
2019-05-25T14:30:11.503Z,49.40
2019-05-25T14:32:40.037Z,51.30
2019-05-25T14:35:08.966Z,51.10
2019-05-25T14:37:37.517Z,52.30
2019-05-25T14:40:11.285Z,52.10
2019-05-25T14:42:38.223Z,53.10
2019-05-25T14:45:08.039Z,53.60
2019-05-25T14:47:36.591Z,56.70
2019-05-25T14:50:09.035Z,56.00
2019-05-25T14:52:37.584Z,57.40
2019-05-25T14:55:09.046Z,56.70
2019-05-25T14:57:37.607Z,56.90
2019-05-25T15:00:08.516Z,59.10
2019-05-25T15:02:37.029Z,58.80
2019-05-25T15:05:06.108Z,58.70
2019-05-25T15:07:34.745Z,59.70
2019-05-25T15:10:04.646Z,60.20
2019-05-25T15:12:33.215Z,61.30
2019-05-25T15:15:01.764Z,60.10
2019-05-25T15:17:30.339Z,60.60
2019-05-25T15:19:58.887Z,59.70
2019-05-25T15:22:27.455Z,60.10
2019-05-25T15:24:55.986Z,58.90
2019-05-25T15:27:24.905Z,58.30
2019-05-25T15:29:53.453Z,58.00
2019-05-25T15:32:22.036Z,58.10
2019-05-25T15:34:50.566Z,57.40
2019-05-25T15:37:19.131Z,56.40
2019-05-25T15:39:47.677Z,56.50
2019-05-25T15:42:16.318Z,54.50
2019-05-25T15:44:44.862Z,53.80
2019-05-25T15:47:13.504Z,50.50
2019-05-25T15:49:42.100Z,50.50
2019-05-25T15:52:10.733Z,50.50
2019-05-25T15:54:39.633Z,52.10
2019-05-25T15:57:08.175Z,51.40
2019-05-25T15:59:36.858Z,55.10
2019-05-25T16:02:06.539Z,59.50
2019-05-25T16:04:35.685Z,62.80
2019-05-25T16:07:04.714Z,63.30
2019-05-25T16:09:33.288Z,64.20
2019-05-25T16:12:02.208Z,65.10
2019-05-25T16:14:30.771Z,65.50
2019-05-25T16:16:59.377Z,64.80
2019-05-25T16:19:33.467Z,65.90
2019-05-25T16:22:02.140Z,65.60
2019-05-25T16:24:30.742Z,65.40
2019-05-25T16:26:59.557Z,65.00
2019-05-25T16:29:28.109Z,65.80
2019-05-25T16:31:56.684Z,65.70
2019-05-25T16:34:25.262Z,64.60
2019-05-25T16:36:53.897Z,65.40
2019-05-25T16:39:22.446Z,66.70
2019-05-25T16:41:51.024Z,67.40
2019-05-25T16:44:19.570Z,67.60
2019-05-25T16:46:48.115Z,66.70
2019-05-25T16:49:16.765Z,66.30
2019-05-25T16:51:45.240Z,67.70
2019-05-25T16:54:13.808Z,70.00
2019-05-25T16:56:42.431Z,71.60
2019-05-25T16:59:11.008Z,73.40
2019-05-25T17:01:48.208Z,74.50
2019-05-25T17:04:09.831Z,76.00
2019-05-25T17:06:38.366Z,77.20
2019-05-25T17:09:07.511Z,78.80
2019-05-25T17:11:36.044Z,79.70
2019-05-25T17:14:04.693Z,80.90
2019-05-25T17:16:33.222Z,82.10
2019-05-25T17:19:01.738Z,82.20
2019-05-25T17:21:30.338Z,83.70
2019-05-25T17:23:58.902Z,84.20
2019-05-25T17:26:27.446Z,85.40
2019-05-25T17:28:56.037Z,85.90
2019-05-25T17:31:24.565Z,86.20
2019-05-25T17:33:53.975Z,87.60
2019-05-25T17:36:22.587Z,89.10
2019-05-25T17:38:51.168Z,90.40
2019-05-25T17:41:19.806Z,90.70
2019-05-25T17:43:48.371Z,91.00
2019-05-25T17:46:16.907Z,90.60
2019-05-25T17:48:45.402Z,91.00
2019-05-25T17:51:14.087Z,91.30
2019-05-25T17:53:42.667Z,90.80
2019-05-25T17:56:11.130Z,91.00
2019-05-25T17:58:39.694Z,92.20
2019-05-25T18:01:08.229Z,93.10
2019-05-25T18:03:36.731Z,93.60
2019-05-25T18:06:05.263Z,94.30
2019-05-25T18:08:33.832Z,95.00
2019-05-25T18:11:02.365Z,95.90
2019-05-25T18:13:30.951Z,96.90
2019-05-25T18:15:59.583Z,97.20
2019-05-25T18:18:28.094Z,97.30
2019-05-25T18:20:56.846Z,97.50
2019-05-25T18:23:25.395Z,98.40
2019-05-25T18:25:53.966Z,99.00
2019-05-25T18:28:22.527Z,98.80
2019-05-25T18:30:51.125Z,99.40
2019-05-25T18:33:19.970Z,99.90
2019-05-25T18:35:48.598Z,99.90
2019-05-25T18:38:17.180Z,99.90
2019-05-25T18:40:45.743Z,99.90
2019-05-25T18:43:14.296Z,99.90
2019-05-25T18:45:42.870Z,99.90
2019-05-25T18:48:11.411Z,99.90
2019-05-25T18:50:39.975Z,99.90
2019-05-25T18:53:08.531Z,99.90
2019-05-25T18:55:37.395Z,99.90
2019-05-25T18:58:06.018Z,99.90
2019-05-25T19:00:34.730Z,99.90
2019-05-25T19:03:03.354Z,99.90
2019-05-25T19:05:31.911Z,99.90
2019-05-25T19:08:00.813Z,99.90
2019-05-25T19:10:29.395Z,99.90
2019-05-25T19:12:57.919Z,99.90
2019-05-25T19:15:26.561Z,99.90
2019-05-25T19:17:55.264Z,99.90
2019-05-25T19:20:23.966Z,99.90
2019-05-25T19:22:52.507Z,99.90
2019-05-25T19:25:21.143Z,99.90
2019-05-25T19:27:49.690Z,99.90
2019-05-25T19:30:18.914Z,99.90
2019-05-25T19:32:47.479Z,99.90
2019-05-25T19:35:16.274Z,99.90
2019-05-25T19:37:44.831Z,99.90
2019-05-25T19:40:15.210Z,99.90
2019-05-25T19:42:43.747Z,99.90
2019-05-25T19:45:14.054Z,99.90
2019-05-25T19:47:42.602Z,99.90
2019-05-25T19:50:11.513Z,99.90
2019-05-25T19:52:40.056Z,99.90
2019-05-25T19:55:08.884Z,99.90
2019-05-25T19:57:37.498Z,99.90
2019-05-25T20:00:07.188Z,99.90
2019-05-25T20:02:35.789Z,99.90
2019-05-25T20:05:15.948Z,99.90
2019-05-25T20:07:37.416Z,99.90
2019-05-25T20:10:08.950Z,99.90
2019-05-25T20:12:37.519Z,99.90
2019-05-25T20:15:08.198Z,99.90
2019-05-25T20:17:37.019Z,99.90
2019-05-25T20:20:06.305Z,99.90
2019-05-25T20:22:34.798Z,99.90
2019-05-25T20:25:04.597Z,99.90
2019-05-25T20:27:33.142Z,99.90
2019-05-25T20:30:01.697Z,99.90
2019-05-25T20:32:30.254Z,99.90
2019-05-25T20:34:58.757Z,99.90
2019-05-25T20:37:27.297Z,99.90
2019-05-25T20:39:55.851Z,99.90
2019-05-25T20:42:24.423Z,99.90
2019-05-25T20:44:52.969Z,99.90
2019-05-25T20:47:21.538Z,99.90
2019-05-25T20:49:50.086Z,99.90
2019-05-25T20:52:18.659Z,99.90
2019-05-25T20:54:47.192Z,99.90
2019-05-25T20:57:15.761Z,99.90
2019-05-25T20:59:44.306Z,99.90
2019-05-25T21:02:12.961Z,99.90
2019-05-25T21:04:41.499Z,99.90
2019-05-25T21:07:10.073Z,99.90
2019-05-25T21:09:38.607Z,99.90
2019-05-25T21:12:07.319Z,99.90
2019-05-25T21:14:35.860Z,99.90
2019-05-25T21:17:04.499Z,99.90
2019-05-25T21:19:33.050Z,99.90
2019-05-25T21:22:01.619Z,99.90
2019-05-25T21:24:30.158Z,99.90
2019-05-25T21:26:58.731Z,99.90
2019-05-25T21:29:27.273Z,99.90
2019-05-25T21:31:55.848Z,99.90
2019-05-25T21:34:24.387Z,99.90
2019-05-25T21:36:52.968Z,99.90
2019-05-25T21:39:21.502Z,99.90
2019-05-25T21:41:50.073Z,99.90
2019-05-25T21:44:18.611Z,99.90
2019-05-25T21:46:47.213Z,99.90
2019-05-25T21:49:15.746Z,99.90
2019-05-25T21:51:44.215Z,99.90
2019-05-25T21:54:12.787Z,99.90
2019-05-25T21:56:41.379Z,99.90
2019-05-25T21:59:09.895Z,99.90
2019-05-25T22:01:38.585Z,99.90
2019-05-25T22:04:07.167Z,99.90
2019-05-25T22:06:35.701Z,99.90
2019-05-25T22:09:06.114Z,99.90
2019-05-25T22:11:34.665Z,99.90
2019-05-25T22:14:03.865Z,99.90
2019-05-25T22:16:32.380Z,99.90
2019-05-25T22:19:01.288Z,99.90
2019-05-25T22:21:29.762Z,99.90
2019-05-25T22:23:58.408Z,99.90
2019-05-25T22:26:27.618Z,99.90
2019-05-25T22:28:56.195Z,99.90
2019-05-25T22:31:24.942Z,99.90
2019-05-25T22:33:53.449Z,99.90
2019-05-25T22:36:22.312Z,99.90
2019-05-25T22:38:50.911Z,99.90
2019-05-25T22:41:20.155Z,99.90
2019-05-25T22:43:48.894Z,99.90
2019-05-25T22:46:17.421Z,99.90
2019-05-25T22:48:46.028Z,99.90
2019-05-25T22:51:14.535Z,99.90
2019-05-25T22:53:43.122Z,99.90
2019-05-25T22:56:11.653Z,99.90
2019-05-25T22:58:40.209Z,99.90
2019-05-25T23:01:08.748Z,99.90
2019-05-25T23:03:37.328Z,99.90
2019-05-25T23:06:05.865Z,99.90
2019-05-25T23:08:34.427Z,99.90
2019-05-25T23:11:02.894Z,99.90
2019-05-25T23:13:31.459Z,99.90
2019-05-25T23:16:00.000Z,99.90
2019-05-25T23:18:28.582Z,99.90
2019-05-25T23:20:57.105Z,99.90
2019-05-25T23:23:25.670Z,99.90
2019-05-25T23:25:54.216Z,99.90
2019-05-25T23:28:22.769Z,99.90
2019-05-25T23:30:51.251Z,99.90
2019-05-25T23:33:19.790Z,99.90
2019-05-25T23:35:48.346Z,99.90
2019-05-25T23:38:16.821Z,99.90
2019-05-25T23:40:45.322Z,99.90
2019-05-25T23:43:13.863Z,99.90
2019-05-25T23:45:42.448Z,99.90
2019-05-25T23:48:10.994Z,99.90
2019-05-25T23:50:39.562Z,99.90
2019-05-25T23:53:08.109Z,99.90
2019-05-25T23:55:36.759Z,99.90
2019-05-25T23:58:05.363Z,99.90
